Terminal Aerodrome Forecast
Issued by NWS

Home | Current Version | Previous Version | Text Only | Print | Product List | Glossary On
Versions: 1 2 3 4 5 6 7 8 9 10 11 12 13 14 15 16
000
FTUS41 KBTV 011725
TAFSLK
TAF
KSLK 011725Z 0118/0218 26010G16KT P6SM SCT040 BKN050
     FM020200 VRB02KT P6SM SCT050 BKN080
     FM020600 00000KT 5SM BR SCT150
     FM021300 24008KT P6SM SCT080=

USA.gov is the U.S. government's official web portal to all federal, state and local government web resources and services.